sensor_id;sensor_type;location;lat;lon;timestamp;pressure;altitude;pressure_sealevel;temperature;humidity
56142;BME280;42018;48.588;10.836;2024-02-26T00:01:10;95030.13;;;7.80;56.38
56142;BME280;42018;48.588;10.836;2024-02-26T00:03:56;95032.00;;;7.79;56.43
56142;BME280;42018;48.588;10.836;2024-02-26T00:06:44;95022.81;;;7.77;56.26
56142;BME280;42018;48.588;10.836;2024-02-26T00:09:30;95021.81;;;7.73;56.63
56142;BME280;42018;48.588;10.836;2024-02-26T00:12:16;95013.41;;;7.71;56.88
56142;BME280;42018;48.588;10.836;2024-02-26T00:15:01;95022.66;;;7.68;56.96
56142;BME280;42018;48.588;10.836;2024-02-26T00:17:47;95017.38;;;7.68;56.64
56142;BME280;42018;48.588;10.836;2024-02-26T00:20:32;95010.19;;;7.74;56.60
56142;BME280;42018;48.588;10.836;2024-02-26T00:23:18;95006.00;;;7.73;56.55
56142;BME280;42018;48.588;10.836;2024-02-26T00:26:03;95011.53;;;7.71;56.51
56142;BME280;42018;48.588;10.836;2024-02-26T00:28:49;95008.69;;;7.67;56.33
56142;BME280;42018;48.588;10.836;2024-02-26T00:31:36;95011.63;;;7.66;56.89
56142;BME280;42018;48.588;10.836;2024-02-26T00:34:22;95004.00;;;7.64;57.34
56142;BME280;42018;48.588;10.836;2024-02-26T00:37:07;95005.59;;;7.65;57.33
56142;BME280;42018;48.588;10.836;2024-02-26T00:39:53;95003.44;;;7.67;57.11
56142;BME280;42018;48.588;10.836;2024-02-26T00:42:39;95002.84;;;7.71;56.84
56142;BME280;42018;48.588;10.836;2024-02-26T00:45:30;94998.16;;;7.67;57.29
56142;BME280;42018;48.588;10.836;2024-02-26T00:48:17;94996.09;;;7.64;57.50
56142;BME280;42018;48.588;10.836;2024-02-26T00:51:03;95005.09;;;7.63;57.34
56142;BME280;42018;48.588;10.836;2024-02-26T00:53:53;95004.66;;;7.56;57.88
56142;BME280;42018;48.588;10.836;2024-02-26T00:56:39;95000.75;;;7.54;57.85
56142;BME280;42018;48.588;10.836;2024-02-26T00:59:24;95001.84;;;7.53;57.47
56142;BME280;42018;48.588;10.836;2024-02-26T01:02:10;94999.50;;;7.51;56.65
56142;BME280;42018;48.588;10.836;2024-02-26T01:04:55;94989.31;;;7.44;56.00
56142;BME280;42018;48.588;10.836;2024-02-26T01:07:41;94986.47;;;7.41;56.29
56142;BME280;42018;48.588;10.836;2024-02-26T01:10:27;94986.75;;;7.39;56.52
56142;BME280;42018;48.588;10.836;2024-02-26T01:13:12;94985.41;;;7.42;56.31
56142;BME280;42018;48.588;10.836;2024-02-26T01:15:58;94988.53;;;7.44;56.30
56142;BME280;42018;48.588;10.836;2024-02-26T01:18:46;94985.00;;;7.35;57.99
56142;BME280;42018;48.588;10.836;2024-02-26T01:21:32;94986.13;;;7.29;58.17
56142;BME280;42018;48.588;10.836;2024-02-26T01:24:17;94986.28;;;7.18;57.79
56142;BME280;42018;48.588;10.836;2024-02-26T01:27:04;94995.97;;;7.04;58.03
56142;BME280;42018;48.588;10.836;2024-02-26T01:29:49;94996.53;;;6.82;58.66
56142;BME280;42018;48.588;10.836;2024-02-26T01:32:35;95001.91;;;6.53;59.71
56142;BME280;42018;48.588;10.836;2024-02-26T01:35:21;95000.25;;;6.38;60.62
56142;BME280;42018;48.588;10.836;2024-02-26T01:38:07;94993.56;;;6.46;60.58
56142;BME280;42018;48.588;10.836;2024-02-26T01:40:52;94993.75;;;6.55;60.75
56142;BME280;42018;48.588;10.836;2024-02-26T01:43:38;94989.75;;;6.57;61.14
56142;BME280;42018;48.588;10.836;2024-02-26T01:46:23;94988.84;;;6.67;60.77
56142;BME280;42018;48.588;10.836;2024-02-26T01:51:58;94973.06;;;6.67;61.60
56142;BME280;42018;48.588;10.836;2024-02-26T01:54:45;94973.41;;;6.79;61.02
56142;BME280;42018;48.588;10.836;2024-02-26T01:57:31;94972.28;;;6.85;61.19
56142;BME280;42018;48.588;10.836;2024-02-26T02:00:17;94976.63;;;6.95;61.02
56142;BME280;42018;48.588;10.836;2024-02-26T02:03:03;94972.34;;;6.99;61.02
56142;BME280;42018;48.588;10.836;2024-02-26T02:05:49;94981.19;;;7.08;60.59
56142;BME280;42018;48.588;10.836;2024-02-26T02:08:35;94973.00;;;7.10;60.50
56142;BME280;42018;48.588;10.836;2024-02-26T02:11:21;94972.06;;;7.19;60.00
56142;BME280;42018;48.588;10.836;2024-02-26T02:14:06;94976.03;;;7.17;60.30
56142;BME280;42018;48.588;10.836;2024-02-26T02:16:52;94972.84;;;7.20;59.73
56142;BME280;42018;48.588;10.836;2024-02-26T02:19:37;94970.47;;;7.18;60.02
56142;BME280;42018;48.588;10.836;2024-02-26T02:22:23;94975.13;;;7.27;59.60
56142;BME280;42018;48.588;10.836;2024-02-26T02:25:08;94969.34;;;7.25;59.83
56142;BME280;42018;48.588;10.836;2024-02-26T02:27:55;94968.56;;;7.24;59.75
56142;BME280;42018;48.588;10.836;2024-02-26T02:30:41;94972.75;;;7.25;59.90
56142;BME280;42018;48.588;10.836;2024-02-26T02:33:26;94971.97;;;7.25;60.01
56142;BME280;42018;48.588;10.836;2024-02-26T02:36:12;94971.03;;;7.34;59.58
56142;BME280;42018;48.588;10.836;2024-02-26T02:38:58;94952.38;;;7.31;59.75
56142;BME280;42018;48.588;10.836;2024-02-26T02:41:43;94953.16;;;7.31;59.53
56142;BME280;42018;48.588;10.836;2024-02-26T02:44:29;94956.88;;;7.30;59.90
56142;BME280;42018;48.588;10.836;2024-02-26T02:47:14;94951.41;;;7.27;60.02
56142;BME280;42018;48.588;10.836;2024-02-26T02:50:04;94946.41;;;7.25;59.86
56142;BME280;42018;48.588;10.836;2024-02-26T02:52:49;94955.91;;;7.26;59.98
56142;BME280;42018;48.588;10.836;2024-02-26T02:55:35;94968.13;;;7.17;60.42
56142;BME280;42018;48.588;10.836;2024-02-26T02:58:21;94963.81;;;7.07;60.94
56142;BME280;42018;48.588;10.836;2024-02-26T03:01:06;94970.44;;;7.05;61.39
56142;BME280;42018;48.588;10.836;2024-02-26T03:03:52;94966.38;;;7.12;60.70
56142;BME280;42018;48.588;10.836;2024-02-26T03:06:37;94968.22;;;7.12;60.87
56142;BME280;42018;48.588;10.836;2024-02-26T03:09:23;94964.53;;;7.13;61.02
56142;BME280;42018;48.588;10.836;2024-02-26T03:12:08;94965.00;;;7.15;60.93
56142;BME280;42018;48.588;10.836;2024-02-26T03:14:54;94968.50;;;7.10;60.64
56142;BME280;42018;48.588;10.836;2024-02-26T03:17:39;94969.78;;;7.13;60.77
56142;BME280;42018;48.588;10.836;2024-02-26T03:20:25;94962.38;;;7.15;60.44
56142;BME280;42018;48.588;10.836;2024-02-26T03:23:10;94966.28;;;7.17;60.57
56142;BME280;42018;48.588;10.836;2024-02-26T03:25:58;94961.47;;;7.06;61.04
56142;BME280;42018;48.588;10.836;2024-02-26T03:28:43;94963.03;;;7.07;61.11
56142;BME280;42018;48.588;10.836;2024-02-26T03:31:29;94955.34;;;7.10;61.04
56142;BME280;42018;48.588;10.836;2024-02-26T03:34:14;94958.34;;;6.66;62.42
56142;BME280;42018;48.588;10.836;2024-02-26T03:37:00;94961.75;;;6.66;62.96
56142;BME280;42018;48.588;10.836;2024-02-26T03:39:46;94961.25;;;6.64;63.23
56142;BME280;42018;48.588;10.836;2024-02-26T03:42:32;94963.41;;;6.81;62.36
56142;BME280;42018;48.588;10.836;2024-02-26T03:45:17;94961.75;;;6.66;63.12
56142;BME280;42018;48.588;10.836;2024-02-26T03:48:03;94966.03;;;6.81;62.12
56142;BME280;42018;48.588;10.836;2024-02-26T03:50:49;94964.81;;;6.92;62.17
56142;BME280;42018;48.588;10.836;2024-02-26T03:53:34;94963.09;;;6.83;62.07
56142;BME280;42018;48.588;10.836;2024-02-26T03:56:20;94958.56;;;6.88;62.07
56142;BME280;42018;48.588;10.836;2024-02-26T03:59:06;94963.72;;;6.93;61.96
56142;BME280;42018;48.588;10.836;2024-02-26T04:01:51;94972.72;;;6.92;61.73
56142;BME280;42018;48.588;10.836;2024-02-26T04:04:37;94959.25;;;6.75;62.81
56142;BME280;42018;48.588;10.836;2024-02-26T04:07:22;94969.16;;;6.83;62.28
56142;BME280;42018;48.588;10.836;2024-02-26T04:10:12;94969.50;;;6.77;62.19
56142;BME280;42018;48.588;10.836;2024-02-26T04:12:58;94964.69;;;6.84;62.31
56142;BME280;42018;48.588;10.836;2024-02-26T04:15:43;94972.28;;;6.66;62.99
56142;BME280;42018;48.588;10.836;2024-02-26T04:18:29;94973.38;;;6.41;63.65
56142;BME280;42018;48.588;10.836;2024-02-26T04:21:14;94974.41;;;6.64;63.20
56142;BME280;42018;48.588;10.836;2024-02-26T04:24:00;94973.78;;;6.72;63.08
56142;BME280;42018;48.588;10.836;2024-02-26T04:26:47;94983.47;;;6.77;62.83
56142;BME280;42018;48.588;10.836;2024-02-26T04:29:33;94985.53;;;6.80;62.67
56142;BME280;42018;48.588;10.836;2024-02-26T04:32:18;94988.06;;;6.47;63.66
56142;BME280;42018;48.588;10.836;2024-02-26T04:35:04;94992.91;;;6.78;62.69
56142;BME280;42018;48.588;10.836;2024-02-26T04:37:50;94992.34;;;6.81;62.64
56142;BME280;42018;48.588;10.836;2024-02-26T04:40:35;94994.69;;;6.83;62.29
56142;BME280;42018;48.588;10.836;2024-02-26T04:43:21;94995.75;;;6.82;62.44
56142;BME280;42018;48.588;10.836;2024-02-26T04:46:07;95001.53;;;6.84;62.72
56142;BME280;42018;48.588;10.836;2024-02-26T04:48:53;94997.25;;;6.88;62.51
56142;BME280;42018;48.588;10.836;2024-02-26T04:51:39;95009.16;;;6.61;63.30
56142;BME280;42018;48.588;10.836;2024-02-26T04:54:24;95007.28;;;6.86;62.33
56142;BME280;42018;48.588;10.836;2024-02-26T04:57:10;95002.03;;;6.43;63.68
56142;BME280;42018;48.588;10.836;2024-02-26T04:59:56;94999.63;;;6.22;64.61
56142;BME280;42018;48.588;10.836;2024-02-26T05:02:41;95006.72;;;6.46;63.65
56142;BME280;42018;48.588;10.836;2024-02-26T05:05:27;95005.47;;;6.19;65.19
56142;BME280;42018;48.588;10.836;2024-02-26T05:08:13;95021.22;;;6.43;64.00
56142;BME280;42018;48.588;10.836;2024-02-26T05:10:58;95017.13;;;6.56;63.43
56142;BME280;42018;48.588;10.836;2024-02-26T05:13:47;95015.81;;;6.59;63.51
56142;BME280;42018;48.588;10.836;2024-02-26T05:16:33;95008.81;;;6.68;62.94
56142;BME280;42018;48.588;10.836;2024-02-26T05:19:18;94999.69;;;6.41;63.64
56142;BME280;42018;48.588;10.836;2024-02-26T05:22:04;94992.50;;;6.47;64.20
56142;BME280;42018;48.588;10.836;2024-02-26T05:24:50;95001.91;;;6.53;63.89
56142;BME280;42018;48.588;10.836;2024-02-26T05:27:36;95008.47;;;6.56;63.84
56142;BME280;42018;48.588;10.836;2024-02-26T05:30:22;95011.00;;;6.42;64.32
56142;BME280;42018;48.588;10.836;2024-02-26T05:33:08;95014.38;;;6.47;64.16
56142;BME280;42018;48.588;10.836;2024-02-26T05:35:53;95012.66;;;6.33;64.47
56142;BME280;42018;48.588;10.836;2024-02-26T05:38:39;95012.78;;;5.64;66.28
56142;BME280;42018;48.588;10.836;2024-02-26T05:41:24;95015.53;;;6.12;65.44
56142;BME280;42018;48.588;10.836;2024-02-26T05:44:11;95023.38;;;6.41;64.27
56142;BME280;42018;48.588;10.836;2024-02-26T05:46:57;95021.06;;;6.59;63.99
56142;BME280;42018;48.588;10.836;2024-02-26T05:49:43;95016.31;;;6.37;64.51
56142;BME280;42018;48.588;10.836;2024-02-26T05:52:29;95018.84;;;6.23;65.42
56142;BME280;42018;48.588;10.836;2024-02-26T05:55:18;95015.91;;;6.48;64.35
56142;BME280;42018;48.588;10.836;2024-02-26T05:58:04;95027.88;;;6.60;63.64
56142;BME280;42018;48.588;10.836;2024-02-26T06:00:49;95037.41;;;6.56;63.88
56142;BME280;42018;48.588;10.836;2024-02-26T06:03:35;95042.34;;;6.38;64.85
56142;BME280;42018;48.588;10.836;2024-02-26T06:06:20;95051.41;;;6.27;65.00
56142;BME280;42018;48.588;10.836;2024-02-26T06:09:08;95045.88;;;5.99;66.33
56142;BME280;42018;48.588;10.836;2024-02-26T06:11:53;95036.00;;;6.15;66.00
56142;BME280;42018;48.588;10.836;2024-02-26T06:14:42;95030.56;;;6.07;65.33
56142;BME280;42018;48.588;10.836;2024-02-26T06:17:28;95027.59;;;6.13;65.51
56142;BME280;42018;48.588;10.836;2024-02-26T06:20:14;95045.59;;;6.30;65.09
56142;BME280;42018;48.588;10.836;2024-02-26T06:22:59;95048.66;;;6.37;64.68
56142;BME280;42018;48.588;10.836;2024-02-26T06:25:45;95057.34;;;6.38;64.55
56142;BME280;42018;48.588;10.836;2024-02-26T06:28:33;95058.41;;;6.37;64.75
56142;BME280;42018;48.588;10.836;2024-02-26T06:31:24;95058.84;;;6.44;64.74
56142;BME280;42018;48.588;10.836;2024-02-26T06:34:10;95068.78;;;6.47;64.49
56142;BME280;42018;48.588;10.836;2024-02-26T06:36:56;95069.72;;;6.08;65.92
56142;BME280;42018;48.588;10.836;2024-02-26T06:39:42;95082.38;;;6.06;65.99
56142;BME280;42018;48.588;10.836;2024-02-26T06:42:28;95087.31;;;6.13;66.01
56142;BME280;42018;48.588;10.836;2024-02-26T06:45:17;95078.22;;;6.00;65.93
56142;BME280;42018;48.588;10.836;2024-02-26T06:48:05;95077.69;;;6.27;65.60
56142;BME280;42018;48.588;10.836;2024-02-26T06:50:51;95070.31;;;6.29;65.67
56142;BME280;42018;48.588;10.836;2024-02-26T06:53:37;95059.69;;;5.81;68.13
56142;BME280;42018;48.588;10.836;2024-02-26T06:56:22;95050.28;;;6.09;66.40
56142;BME280;42018;48.588;10.836;2024-02-26T06:59:08;95052.16;;;6.04;66.63
56142;BME280;42018;48.588;10.836;2024-02-26T07:01:54;95044.63;;;5.92;68.08
56142;BME280;42018;48.588;10.836;2024-02-26T07:04:40;95052.22;;;6.22;66.54
56142;BME280;42018;48.588;10.836;2024-02-26T07:07:26;95070.13;;;6.20;66.41
56142;BME280;42018;48.588;10.836;2024-02-26T07:10:11;95072.16;;;6.29;66.09
56142;BME280;42018;48.588;10.836;2024-02-26T07:12:57;95070.47;;;6.14;66.93
56142;BME280;42018;48.588;10.836;2024-02-26T07:15:43;95069.28;;;6.25;66.29
56142;BME280;42018;48.588;10.836;2024-02-26T07:18:28;95066.31;;;6.37;66.21
56142;BME280;42018;48.588;10.836;2024-02-26T07:21:17;95070.38;;;6.48;65.60
56142;BME280;42018;48.588;10.836;2024-02-26T07:24:02;95081.69;;;6.48;65.47
56142;BME280;42018;48.588;10.836;2024-02-26T07:26:48;95087.72;;;6.49;65.03
56142;BME280;42018;48.588;10.836;2024-02-26T07:29:34;95095.66;;;6.20;65.10
56142;BME280;42018;48.588;10.836;2024-02-26T07:32:19;95105.84;;;6.27;66.41
56142;BME280;42018;48.588;10.836;2024-02-26T07:35:05;95110.81;;;6.28;66.21
56142;BME280;42018;48.588;10.836;2024-02-26T07:37:50;95120.25;;;6.34;66.62
56142;BME280;42018;48.588;10.836;2024-02-26T07:40:36;95115.00;;;6.29;66.20
56142;BME280;42018;48.588;10.836;2024-02-26T07:43:22;95118.78;;;6.47;66.08
56142;BME280;42018;48.588;10.836;2024-02-26T07:46:07;95125.00;;;6.56;65.51
56142;BME280;42018;48.588;10.836;2024-02-26T07:48:53;95125.25;;;6.60;65.63
56142;BME280;42018;48.588;10.836;2024-02-26T07:51:39;95117.72;;;6.72;65.73
56142;BME280;42018;48.588;10.836;2024-02-26T07:54:24;95112.25;;;6.92;64.94
56142;BME280;42018;48.588;10.836;2024-02-26T07:57:10;95108.72;;;7.02;64.59
56142;BME280;42018;48.588;10.836;2024-02-26T07:59:55;95105.84;;;6.99;64.85
56142;BME280;42018;48.588;10.836;2024-02-26T08:02:41;95099.69;;;7.08;64.15
56142;BME280;42018;48.588;10.836;2024-02-26T08:05:27;95123.22;;;7.18;63.80
56142;BME280;42018;48.588;10.836;2024-02-26T08:08:12;95124.03;;;7.19;63.08
56142;BME280;42018;48.588;10.836;2024-02-26T08:10:58;95119.34;;;7.35;63.57
56142;BME280;42018;48.588;10.836;2024-02-26T08:13:43;95118.13;;;7.46;63.01
56142;BME280;42018;48.588;10.836;2024-02-26T08:16:29;95121.19;;;7.53;63.51
56142;BME280;42018;48.588;10.836;2024-02-26T08:19:14;95127.81;;;7.70;62.82
56142;BME280;42018;48.588;10.836;2024-02-26T08:22:01;95135.66;;;7.75;62.07
56142;BME280;42018;48.588;10.836;2024-02-26T08:24:47;95139.13;;;7.89;61.57
56142;BME280;42018;48.588;10.836;2024-02-26T08:27:33;95141.34;;;7.82;60.89
56142;BME280;42018;48.588;10.836;2024-02-26T08:30:18;95133.59;;;7.90;60.23
56142;BME280;42018;48.588;10.836;2024-02-26T08:33:04;95131.94;;;7.57;61.28
56142;BME280;42018;48.588;10.836;2024-02-26T08:35:50;95116.22;;;7.71;61.00
56142;BME280;42018;48.588;10.836;2024-02-26T08:38:35;95107.44;;;6.76;64.27
56142;BME280;42018;48.588;10.836;2024-02-26T08:41:21;95098.34;;;7.30;63.19
56142;BME280;42018;48.588;10.836;2024-02-26T08:44:07;95098.78;;;7.37;63.40
56142;BME280;42018;48.588;10.836;2024-02-26T08:46:52;95091.38;;;6.77;65.59
56142;BME280;42018;48.588;10.836;2024-02-26T08:49:42;95094.84;;;7.34;63.98
56142;BME280;42018;48.588;10.836;2024-02-26T08:52:28;95103.75;;;7.57;63.00
56142;BME280;42018;48.588;10.836;2024-02-26T08:55:14;95102.88;;;7.81;62.46
56142;BME280;42018;48.588;10.836;2024-02-26T08:58:00;95090.31;;;7.91;62.49
56142;BME280;42018;48.588;10.836;2024-02-26T09:00:45;95086.72;;;6.69;64.80
56142;BME280;42018;48.588;10.836;2024-02-26T09:03:31;95092.59;;;6.85;65.22
56142;BME280;42018;48.588;10.836;2024-02-26T09:06:16;95085.72;;;7.46;63.21
56142;BME280;42018;48.588;10.836;2024-02-26T09:09:02;95097.81;;;7.84;62.07
56142;BME280;42018;48.588;10.836;2024-02-26T09:11:49;95097.53;;;7.67;62.53
56142;BME280;42018;48.588;10.836;2024-02-26T09:14:36;95096.38;;;7.92;62.52
56142;BME280;42018;48.588;10.836;2024-02-26T09:17:22;95092.88;;;7.26;64.37
56142;BME280;42018;48.588;10.836;2024-02-26T09:20:08;95099.78;;;7.92;62.90
56142;BME280;42018;48.588;10.836;2024-02-26T09:22:54;95098.19;;;7.59;63.37
56142;BME280;42018;48.588;10.836;2024-02-26T09:25:40;95094.44;;;7.65;63.62
56142;BME280;42018;48.588;10.836;2024-02-26T09:28:26;95096.91;;;8.22;62.57
56142;BME280;42018;48.588;10.836;2024-02-26T09:31:11;95100.41;;;8.03;62.09
56142;BME280;42018;48.588;10.836;2024-02-26T09:33:57;95096.25;;;8.16;61.35
56142;BME280;42018;48.588;10.836;2024-02-26T09:36:43;95102.59;;;8.48;60.87
56142;BME280;42018;48.588;10.836;2024-02-26T09:39:29;95104.41;;;8.33;60.00
56142;BME280;42018;48.588;10.836;2024-02-26T09:42:18;95102.88;;;8.13;59.77
56142;BME280;42018;48.588;10.836;2024-02-26T09:45:05;95109.06;;;8.23;59.82
56142;BME280;42018;48.588;10.836;2024-02-26T09:47:56;95115.00;;;7.63;61.66
56142;BME280;42018;48.588;10.836;2024-02-26T09:50:42;95110.91;;;7.89;61.06
56142;BME280;42018;48.588;10.836;2024-02-26T09:53:29;95099.44;;;8.13;60.51
56142;BME280;42018;48.588;10.836;2024-02-26T09:56:19;95103.66;;;8.60;59.11
56142;BME280;42018;48.588;10.836;2024-02-26T09:59:13;95100.25;;;9.01;58.20
56142;BME280;42018;48.588;10.836;2024-02-26T10:02:00;95103.09;;;8.91;58.68
56142;BME280;42018;48.588;10.836;2024-02-26T10:04:47;95104.84;;;9.46;58.67
56142;BME280;42018;48.588;10.836;2024-02-26T10:07:35;95092.81;;;9.53;57.40
56142;BME280;42018;48.588;10.836;2024-02-26T10:10:22;95103.47;;;9.48;56.18
56142;BME280;42018;48.588;10.836;2024-02-26T10:13:08;95096.72;;;9.42;56.87
56142;BME280;42018;48.588;10.836;2024-02-26T10:15:55;95101.25;;;9.42;56.64
56142;BME280;42018;48.588;10.836;2024-02-26T10:18:51;95106.94;;;9.35;56.61
56142;BME280;42018;48.588;10.836;2024-02-26T10:21:37;95116.88;;;9.52;56.87
56142;BME280;42018;48.588;10.836;2024-02-26T10:24:22;95116.75;;;9.07;56.74
56142;BME280;42018;48.588;10.836;2024-02-26T10:27:08;95131.34;;;8.77;58.18
56142;BME280;42018;48.588;10.836;2024-02-26T10:29:56;95129.19;;;9.56;56.50
56142;BME280;42018;48.588;10.836;2024-02-26T10:32:43;95134.09;;;9.63;55.69
56142;BME280;42018;48.588;10.836;2024-02-26T10:35:30;95139.09;;;9.65;55.70
56142;BME280;42018;48.588;10.836;2024-02-26T10:38:17;95139.97;;;9.60;55.52
56142;BME280;42018;48.588;10.836;2024-02-26T10:41:06;95145.38;;;9.91;54.89
56142;BME280;42018;48.588;10.836;2024-02-26T10:43:52;95144.28;;;9.92;54.95
56142;BME280;42018;48.588;10.836;2024-02-26T10:46:40;95143.38;;;10.19;54.45
56142;BME280;42018;48.588;10.836;2024-02-26T10:49:26;95142.66;;;9.82;54.85
56142;BME280;42018;48.588;10.836;2024-02-26T10:52:12;95153.13;;;9.51;55.68
56142;BME280;42018;48.588;10.836;2024-02-26T10:55:03;95159.78;;;9.85;54.53
56142;BME280;42018;48.588;10.836;2024-02-26T10:57:52;95169.41;;;9.81;54.29
56142;BME280;42018;48.588;10.836;2024-02-26T11:00:39;95164.31;;;10.07;54.11
56142;BME280;42018;48.588;10.836;2024-02-26T11:03:25;95161.50;;;10.03;54.93
56142;BME280;42018;48.588;10.836;2024-02-26T11:06:12;95159.69;;;10.35;55.25
56142;BME280;42018;48.588;10.836;2024-02-26T11:08:59;95165.16;;;9.94;55.78
56142;BME280;42018;48.588;10.836;2024-02-26T11:11:45;95157.22;;;10.16;54.86
56142;BME280;42018;48.588;10.836;2024-02-26T11:14:31;95153.56;;;10.48;54.03
56142;BME280;42018;48.588;10.836;2024-02-26T11:17:19;95149.22;;;10.52;54.11
56142;BME280;42018;48.588;10.836;2024-02-26T11:20:13;95146.72;;;10.87;53.90
56142;BME280;42018;48.588;10.836;2024-02-26T11:23:00;95154.41;;;10.97;53.78
56142;BME280;42018;48.588;10.836;2024-02-26T11:25:45;95163.25;;;10.84;53.55
56142;BME280;42018;48.588;10.836;2024-02-26T11:28:33;95164.56;;;11.04;53.62
56142;BME280;42018;48.588;10.836;2024-02-26T11:31:20;95163.09;;;11.29;53.38
56142;BME280;42018;48.588;10.836;2024-02-26T11:34:12;95161.22;;;11.38;52.66
56142;BME280;42018;48.588;10.836;2024-02-26T11:37:09;95172.38;;;11.09;53.21
56142;BME280;42018;48.588;10.836;2024-02-26T11:39:55;95162.88;;;11.17;52.90
56142;BME280;42018;48.588;10.836;2024-02-26T11:42:44;95157.63;;;11.34;52.90
56142;BME280;42018;48.588;10.836;2024-02-26T11:48:25;95163.19;;;11.07;53.98
56142;BME280;42018;48.588;10.836;2024-02-26T11:51:13;95162.66;;;10.34;54.90
56142;BME280;42018;48.588;10.836;2024-02-26T11:54:00;95154.41;;;10.97;54.34
56142;BME280;42018;48.588;10.836;2024-02-26T11:56:45;95157.34;;;10.56;55.29
56142;BME280;42018;48.588;10.836;2024-02-26T11:59:38;95151.59;;;10.94;55.16
56142;BME280;42018;48.588;10.836;2024-02-26T12:05:32;95165.16;;;10.61;56.10
56142;BME280;42018;48.588;10.836;2024-02-26T12:08:21;95159.13;;;11.09;55.00
56142;BME280;42018;48.588;10.836;2024-02-26T12:11:14;95146.22;;;11.16;55.47
56142;BME280;42018;48.588;10.836;2024-02-26T12:14:00;95144.16;;;11.05;53.05
56142;BME280;42018;48.588;10.836;2024-02-26T12:16:47;95145.53;;;10.62;53.86
56142;BME280;42018;48.588;10.836;2024-02-26T12:19:36;95133.00;;;11.25;52.19
56142;BME280;42018;48.588;10.836;2024-02-26T12:22:22;95129.44;;;11.47;51.64
56142;BME280;42018;48.588;10.836;2024-02-26T12:25:09;95134.25;;;11.36;52.40
56142;BME280;42018;48.588;10.836;2024-02-26T12:27:55;95133.19;;;11.55;51.75
56142;BME280;42018;48.588;10.836;2024-02-26T12:30:41;95140.09;;;11.90;50.16
56142;BME280;42018;48.588;10.836;2024-02-26T12:33:27;95135.03;;;11.45;50.82
56142;BME280;42018;48.588;10.836;2024-02-26T12:36:14;95141.22;;;11.89;49.92
56142;BME280;42018;48.588;10.836;2024-02-26T12:39:01;95136.53;;;11.86;50.34
56142;BME280;42018;48.588;10.836;2024-02-26T12:41:47;95133.69;;;12.26;50.21
56142;BME280;42018;48.588;10.836;2024-02-26T12:44:36;95131.50;;;11.76;51.54
56142;BME280;42018;48.588;10.836;2024-02-26T12:47:22;95140.69;;;11.70;51.25
56142;BME280;42018;48.588;10.836;2024-02-26T12:50:09;95141.47;;;11.62;52.16
56142;BME280;42018;48.588;10.836;2024-02-26T12:52:55;95148.66;;;11.79;51.94
56142;BME280;42018;48.588;10.836;2024-02-26T12:55:41;95152.06;;;11.62;52.48
56142;BME280;42018;48.588;10.836;2024-02-26T12:58:29;95160.81;;;11.62;52.48
56142;BME280;42018;48.588;10.836;2024-02-26T13:01:17;95165.16;;;11.41;52.93
56142;BME280;42018;48.588;10.836;2024-02-26T13:04:03;95164.31;;;10.74;54.12
56142;BME280;42018;48.588;10.836;2024-02-26T13:06:52;95172.88;;;11.20;53.74
56142;BME280;42018;48.588;10.836;2024-02-26T13:09:38;95178.91;;;11.51;52.70
56142;BME280;42018;48.588;10.836;2024-02-26T13:12:23;95189.50;;;11.51;52.05
56142;BME280;42018;48.588;10.836;2024-02-26T13:15:14;95194.56;;;11.88;51.28
56142;BME280;42018;48.588;10.836;2024-02-26T13:18:09;95191.56;;;11.63;52.36
56142;BME280;42018;48.588;10.836;2024-02-26T13:21:09;95194.31;;;11.41;52.74
56142;BME280;42018;48.588;10.836;2024-02-26T13:23:55;95191.25;;;11.65;51.26
56142;BME280;42018;48.588;10.836;2024-02-26T13:26:41;95188.00;;;11.68;50.79
56142;BME280;42018;48.588;10.836;2024-02-26T13:29:27;95193.97;;;12.00;51.13
56142;BME280;42018;48.588;10.836;2024-02-26T13:32:12;95199.59;;;11.89;51.24
56142;BME280;42018;48.588;10.836;2024-02-26T13:35:12;95202.25;;;11.41;51.99
56142;BME280;42018;48.588;10.836;2024-02-26T13:37:58;95200.66;;;11.31;52.06
56142;BME280;42018;48.588;10.836;2024-02-26T13:40:44;95198.66;;;11.28;52.84
56142;BME280;42018;48.588;10.836;2024-02-26T13:43:29;95197.47;;;11.51;52.13
56142;BME280;42018;48.588;10.836;2024-02-26T13:46:15;95185.47;;;11.63;51.58
56142;BME280;42018;48.588;10.836;2024-02-26T13:49:01;95194.78;;;11.43;52.36
56142;BME280;42018;48.588;10.836;2024-02-26T13:51:46;95195.97;;;10.88;53.13
56142;BME280;42018;48.588;10.836;2024-02-26T13:54:32;95198.50;;;11.24;52.92
56142;BME280;42018;48.588;10.836;2024-02-26T13:57:19;95196.03;;;11.37;53.53
56142;BME280;42018;48.588;10.836;2024-02-26T14:00:05;95189.25;;;11.79;52.03
56142;BME280;42018;48.588;10.836;2024-02-26T14:02:58;95199.53;;;11.15;53.70
56142;BME280;42018;48.588;10.836;2024-02-26T14:05:43;95195.78;;;11.64;52.73
56142;BME280;42018;48.588;10.836;2024-02-26T14:08:29;95199.38;;;11.77;52.46
56142;BME280;42018;48.588;10.836;2024-02-26T14:11:15;95196.28;;;11.84;51.91
56142;BME280;42018;48.588;10.836;2024-02-26T14:14:00;95202.75;;;11.43;52.68
56142;BME280;42018;48.588;10.836;2024-02-26T14:16:46;95204.06;;;11.71;52.64
56142;BME280;42018;48.588;10.836;2024-02-26T14:19:31;95208.16;;;11.29;52.06
56142;BME280;42018;48.588;10.836;2024-02-26T14:22:17;95215.63;;;11.75;52.50
56142;BME280;42018;48.588;10.836;2024-02-26T14:25:03;95222.53;;;11.85;51.81
56142;BME280;42018;48.588;10.836;2024-02-26T14:27:49;95218.41;;;11.62;53.13
56142;BME280;42018;48.588;10.836;2024-02-26T14:30:35;95222.41;;;11.99;51.99
56142;BME280;42018;48.588;10.836;2024-02-26T14:33:20;95218.63;;;12.09;51.99
56142;BME280;42018;48.588;10.836;2024-02-26T14:36:06;95222.69;;;11.97;52.31
56142;BME280;42018;48.588;10.836;2024-02-26T14:38:52;95222.91;;;11.53;53.09
56142;BME280;42018;48.588;10.836;2024-02-26T14:41:39;95220.88;;;11.58;52.99
56142;BME280;42018;48.588;10.836;2024-02-26T14:44:24;95233.31;;;11.40;53.06
56142;BME280;42018;48.588;10.836;2024-02-26T14:47:10;95230.41;;;11.59;53.06